Time;durP1;ratioP1;P1;durP2;ratioP2;P2;SDS_P1;SDS_P2;PMS_P1;PMS_P2;Temp;Humidity;BMP_temperature;BMP_pressure;BME280_temperature;BME280_humidity;BME280_pressure;Samples;Min_cycle;Max_cycle;Signal;HPM_P1;HPM_P2
2023/10/23 00:00:58;;;;;;;6.18;2.15;;;13.40;99.90;;;;;;5089349;28;20576;-91
2023/10/23 00:03:23;;;;;;;8.82;2.30;;;13.40;99.90;;;;;;5090551;28;20024;-90
2023/10/23 00:05:49;;;;;;;4.88;2.15;;;13.40;99.90;;;;;;5093184;28;20024;-84
2023/10/23 00:08:15;;;;;;;10.73;2.05;;;13.30;99.90;;;;;;5094079;28;20024;-86
2023/10/23 00:10:42;;;;;;;3.92;1.65;;;13.30;99.90;;;;;;5093211;28;20116;-87
2023/10/23 00:13:08;;;;;;;5.55;1.88;;;13.30;99.90;;;;;;5091868;28;20016;-90
2023/10/23 00:15:34;;;;;;;7.32;2.17;;;13.30;99.90;;;;;;5093009;28;20094;-85
2023/10/23 00:17:59;;;;;;;10.77;2.70;;;13.30;99.90;;;;;;5092883;28;20055;-90
2023/10/23 00:20:25;;;;;;;9.50;2.03;;;13.20;99.90;;;;;;5091565;28;20043;-87
2023/10/23 00:22:51;;;;;;;5.90;1.75;;;13.20;99.90;;;;;;5092225;28;20027;-90
2023/10/23 00:25:16;;;;;;;4.57;1.90;;;13.30;99.90;;;;;;5093730;28;20024;-90
2023/10/23 00:27:42;;;;;;;5.47;1.60;;;13.30;99.90;;;;;;5092858;28;20027;-89
2023/10/23 00:30:08;;;;;;;5.32;2.03;;;13.30;99.90;;;;;;5092727;28;20055;-84
2023/10/23 00:32:33;;;;;;;6.50;2.15;;;13.30;99.90;;;;;;5092793;28;20103;-90
2023/10/23 00:34:59;;;;;;;5.15;2.00;;;13.30;99.90;;;;;;5091479;28;20476;-87
2023/10/23 00:37:25;;;;;;;8.57;2.00;;;13.30;99.90;;;;;;5091377;28;20024;-85
2023/10/23 00:39:50;;;;;;;9.02;2.03;;;13.30;99.90;;;;;;5092981;28;20129;-84
2023/10/23 00:42:16;;;;;;;8.85;2.30;;;13.30;99.90;;;;;;5093430;28;20032;-90
2023/10/23 00:44:41;;;;;;;5.85;1.83;;;13.30;99.90;;;;;;5091589;28;20557;-91
2023/10/23 00:47:08;;;;;;;4.93;1.83;;;13.30;99.90;;;;;;5092420;28;20104;-91
2023/10/23 00:49:33;;;;;;;9.35;2.03;;;13.30;99.90;;;;;;5091138;28;20016;-84
2023/10/23 00:52:00;;;;;;;10.57;2.05;;;13.30;99.90;;;;;;5092366;28;20406;-87
2023/10/23 00:54:26;;;;;;;6.47;2.45;;;13.30;99.90;;;;;;5092309;28;20464;-91
2023/10/23 00:56:52;;;;;;;7.38;2.20;;;13.30;99.90;;;;;;5091253;28;20556;-84
2023/10/23 00:59:18;;;;;;;7.10;2.08;;;13.30;99.90;;;;;;5093083;28;20028;-91
2023/10/23 01:01:46;;;;;;;7.95;1.90;;;13.30;99.90;;;;;;5092131;28;20072;-87
2023/10/23 01:04:12;;;;;;;10.18;1.80;;;13.30;99.90;;;;;;5092060;28;20032;-88
2023/10/23 01:06:38;;;;;;;5.47;2.00;;;13.30;99.90;;;;;;5090632;28;20027;-87
2023/10/23 01:09:05;;;;;;;5.03;1.85;;;13.30;99.90;;;;;;5092011;28;20024;-91
2023/10/23 01:11:31;;;;;;;8.93;2.10;;;13.30;99.90;;;;;;5090981;28;20081;-92
2023/10/23 01:13:57;;;;;;;5.00;2.00;;;13.30;99.90;;;;;;5086242;28;20024;-92
2023/10/23 01:16:23;;;;;;;10.43;2.15;;;13.30;99.90;;;;;;5091992;28;20028;-84
2023/10/23 01:18:48;;;;;;;5.68;1.85;;;13.30;99.90;;;;;;5092609;28;20035;-86
2023/10/23 01:21:14;;;;;;;6.10;2.03;;;13.30;99.90;;;;;;5091347;28;20119;-84
2023/10/23 01:23:45;;;;;;;10.10;1.88;;;13.30;99.90;;;;;;5089560;28;20396;-92
2023/10/23 01:26:10;;;;;;;4.65;1.83;;;13.30;99.90;;;;;;5091769;28;20028;-90
2023/10/23 01:28:36;;;;;;;7.20;1.65;;;13.20;99.90;;;;;;5091754;28;20165;-91
2023/10/23 01:31:01;;;;;;;7.15;1.70;;;13.30;99.90;;;;;;5084774;28;20033;-87
2023/10/23 01:33:28;;;;;;;2.97;1.90;;;13.20;99.90;;;;;;5070185;28;20035;-90
2023/10/23 01:35:54;;;;;;;4.82;1.60;;;13.30;99.90;;;;;;5070778;28;20040;-87
2023/10/23 01:38:19;;;;;;;8.68;1.67;;;13.20;99.90;;;;;;5072249;28;20463;-85
2023/10/23 01:40:45;;;;;;;7.45;1.92;;;13.20;99.90;;;;;;5070871;28;20032;-92
2023/10/23 01:43:11;;;;;;;2.78;1.30;;;13.20;99.90;;;;;;5069942;28;20385;-91
2023/10/23 01:45:37;;;;;;;10.15;1.85;;;13.20;99.90;;;;;;5076671;28;20036;-91
2023/10/23 01:48:03;;;;;;;6.95;1.98;;;13.20;99.90;;;;;;5091341;28;20055;-89
2023/10/23 01:50:28;;;;;;;5.93;1.95;;;13.20;99.90;;;;;;5091142;28;20103;-88
2023/10/23 01:52:54;;;;;;;10.15;2.30;;;13.20;99.90;;;;;;5091518;28;20104;-84
2023/10/23 01:55:19;;;;;;;2.65;1.60;;;13.20;99.90;;;;;;5091433;28;20036;-91
2023/10/23 01:57:45;;;;;;;4.75;2.25;;;13.20;99.90;;;;;;5082230;28;20043;-86
2023/10/23 02:00:11;;;;;;;4.70;1.75;;;13.20;99.90;;;;;;5087720;28;20311;-92
2023/10/23 02:02:37;;;;;;;7.72;1.80;;;13.20;99.90;;;;;;5085178;28;20029;-91
2023/10/23 02:05:03;;;;;;;8.00;1.73;;;13.10;99.90;;;;;;5081718;28;20039;-89
2023/10/23 02:07:29;;;;;;;6.45;1.80;;;13.10;99.90;;;;;;5086742;28;20032;-86
2023/10/23 02:09:58;;;;;;;13.32;2.30;;;13.10;99.90;;;;;;5083462;28;20377;-91
2023/10/23 02:12:25;;;;;;;8.65;1.85;;;13.10;99.90;;;;;;5087005;28;20153;-84
2023/10/23 02:14:52;;;;;;;7.05;2.00;;;13.10;99.90;;;;;;5091386;28;20070;-90
2023/10/23 02:17:18;;;;;;;3.50;2.00;;;13.20;99.90;;;;;;5090646;28;20424;-92
2023/10/23 02:19:45;;;;;;;6.88;1.60;;;13.10;99.90;;;;;;5090227;28;20481;-84
2023/10/23 02:22:10;;;;;;;5.72;2.08;;;13.10;99.90;;;;;;5088908;28;20490;-86
2023/10/23 02:24:36;;;;;;;7.55;1.67;;;13.10;99.90;;;;;;5090254;28;20078;-84
2023/10/23 02:27:02;;;;;;;4.78;1.65;;;13.10;99.90;;;;;;5089617;28;20384;-84
2023/10/23 02:29:28;;;;;;;5.90;2.10;;;13.10;99.90;;;;;;5103214;28;20357;-91
2023/10/23 02:31:54;;;;;;;5.95;1.98;;;13.10;99.90;;;;;;5087336;28;20602;-84
2023/10/23 02:34:19;;;;;;;4.10;1.67;;;13.10;99.90;;;;;;5069392;28;20017;-84
2023/10/23 02:36:46;;;;;;;4.50;1.80;;;13.10;99.90;;;;;;5088827;28;20505;-84
2023/10/23 02:39:12;;;;;;;6.40;1.95;;;13.10;99.90;;;;;;5087642;28;20077;-90
2023/10/23 02:41:38;;;;;;;5.53;1.55;;;13.10;99.90;;;;;;5087476;28;20071;-84
2023/10/23 02:44:05;;;;;;;6.65;1.80;;;13.10;99.90;;;;;;5087476;28;20024;-84
2023/10/23 02:46:34;;;;;;;5.93;2.08;;;13.10;99.90;;;;;;5088769;28;20408;-91
2023/10/23 02:49:00;;;;;;;7.13;1.85;;;13.00;99.90;;;;;;5085235;28;20039;-84
2023/10/23 02:51:26;;;;;;;3.63;1.90;;;13.00;99.90;;;;;;5086866;28;20024;-88
2023/10/23 02:53:52;;;;;;;9.13;2.42;;;13.00;99.90;;;;;;5089382;28;20380;-84
2023/10/23 02:56:17;;;;;;;5.82;1.75;;;13.00;99.90;;;;;;5085544;28;20250;-85
2023/10/23 02:58:43;;;;;;;7.95;2.80;;;13.10;99.90;;;;;;5097612;28;20027;-85
2023/10/23 03:01:20;;;;;;;4.40;2.00;;;13.10;99.90;;;;;;5090215;28;20487;-92
2023/10/23 03:03:49;;;;;;;6.93;1.92;;;13.10;99.90;;;;;;5110287;28;20110;-84
2023/10/23 03:06:14;;;;;;;7.63;2.00;;;13.00;99.90;;;;;;5107939;28;20364;-93
2023/10/23 03:08:40;;;;;;;9.93;3.20;;;12.90;99.90;;;;;;5092576;28;20049;-92
2023/10/23 03:11:05;;;;;;;8.55;2.25;;;13.00;99.90;;;;;;5107644;28;20042;-85
2023/10/23 03:13:32;;;;;;;6.28;1.52;;;13.00;99.90;;;;;;5109578;28;20110;-84
2023/10/23 03:15:58;;;;;;;7.28;2.30;;;13.00;99.90;;;;;;5108273;28;20024;-85
2023/10/23 03:18:24;;;;;;;3.67;1.58;;;12.90;99.90;;;;;;5092775;28;20027;-84
2023/10/23 03:20:49;;;;;;;4.80;1.77;;;12.90;99.90;;;;;;5089069;28;20031;-83
2023/10/23 03:23:15;;;;;;;5.30;1.95;;;12.90;99.90;;;;;;5100543;28;20038;-89
2023/10/23 03:25:44;;;;;;;7.32;2.22;;;12.90;99.90;;;;;;5096150;28;20100;-85
2023/10/23 03:28:09;;;;;;;5.30;1.75;;;12.90;99.90;;;;;;5089318;28;20574;-90
2023/10/23 03:30:35;;;;;;;4.90;1.77;;;13.00;99.90;;;;;;5098882;28;20102;-84
2023/10/23 03:33:01;;;;;;;4.50;1.80;;;12.90;99.90;;;;;;5108507;28;20051;-84
2023/10/23 03:35:26;;;;;;;7.25;1.73;;;12.90;99.90;;;;;;5078298;28;20025;-87
2023/10/23 03:37:52;;;;;;;9.82;1.90;;;12.80;99.90;;;;;;5080022;28;20020;-84
2023/10/23 03:40:18;;;;;;;5.28;1.80;;;12.90;99.90;;;;;;5112579;28;20023;-92
2023/10/23 03:42:44;;;;;;;10.88;2.45;;;12.90;99.90;;;;;;5112997;28;20402;-84
2023/10/23 03:45:09;;;;;;;5.93;1.98;;;12.80;99.90;;;;;;5091274;28;20028;-88
2023/10/23 03:47:35;;;;;;;6.22;2.10;;;12.80;99.90;;;;;;5090950;28;20081;-85
2023/10/23 03:50:01;;;;;;;4.97;1.92;;;12.80;99.90;;;;;;5105705;28;20043;-84
2023/10/23 03:52:26;;;;;;;4.30;1.73;;;12.90;99.90;;;;;;5092936;28;20024;-87
2023/10/23 03:54:52;;;;;;;4.95;2.17;;;12.80;99.90;;;;;;5093534;28;20436;-84
2023/10/23 03:57:17;;;;;;;3.80;1.80;;;12.80;99.90;;;;;;5092297;28;20024;-84
2023/10/23 03:59:43;;;;;;;3.85;1.85;;;12.80;99.90;;;;;;5093321;28;20061;-86
2023/10/23 04:02:09;;;;;;;5.35;1.88;;;12.80;99.90;;;;;;5113668;28;20553;-89
2023/10/23 04:04:35;;;;;;;7.45;1.83;;;12.80;99.90;;;;;;5113192;28;20023;-90
2023/10/23 04:07:00;;;;;;;3.67;1.80;;;12.80;99.90;;;;;;5097170;28;20034;-83
2023/10/23 04:09:30;;;;;;;5.25;1.90;;;12.80;99.90;;;;;;5091623;28;20078;-84
2023/10/23 04:11:55;;;;;;;7.10;2.05;;;12.80;99.90;;;;;;5091731;28;20046;-88
2023/10/23 04:14:21;;;;;;;7.15;1.80;;;12.70;99.90;;;;;;5092313;28;20545;-85
2023/10/23 04:16:46;;;;;;;4.90;1.85;;;12.70;99.90;;;;;;5092570;28;20380;-84
2023/10/23 04:19:12;;;;;;;3.47;1.40;;;12.70;99.90;;;;;;5095487;28;20032;-88
2023/10/23 04:21:39;;;;;;;4.30;1.80;;;12.70;99.90;;;;;;5092462;28;20075;-88
2023/10/23 04:24:06;;;;;;;6.78;2.05;;;12.60;99.90;;;;;;5093804;28;20020;-88
2023/10/23 04:26:32;;;;;;;6.47;1.80;;;12.60;99.90;;;;;;5079851;28;20562;-85
2023/10/23 04:28:58;;;;;;;8.32;2.65;;;12.60;99.90;;;;;;5093276;28;20112;-85
2023/10/23 04:31:24;;;;;;;4.45;1.85;;;12.60;99.90;;;;;;5091230;28;20035;-88
2023/10/23 04:33:49;;;;;;;5.22;2.15;;;12.60;99.90;;;;;;5091409;28;20377;-90
2023/10/23 04:36:15;;;;;;;7.07;1.80;;;12.60;99.90;;;;;;5092024;28;20024;-87
2023/10/23 04:38:40;;;;;;;6.47;1.63;;;12.60;99.90;;;;;;5091507;28;20052;-89
2023/10/23 04:41:06;;;;;;;5.40;1.77;;;12.60;99.90;;;;;;5092011;28;20036;-88
2023/10/23 04:43:33;;;;;;;6.45;1.90;;;12.70;99.90;;;;;;5093200;28;20036;-89
2023/10/23 04:45:59;;;;;;;7.13;1.88;;;12.60;99.90;;;;;;5092910;28;20020;-90
2023/10/23 04:48:24;;;;;;;5.80;1.80;;;12.60;99.90;;;;;;5089302;28;20420;-84
2023/10/23 04:50:50;;;;;;;7.45;2.00;;;12.60;99.90;;;;;;5091908;28;20031;-86
2023/10/23 04:53:15;;;;;;;2.33;1.60;;;12.60;99.90;;;;;;5091802;28;20024;-87
2023/10/23 04:55:42;;;;;;;9.88;1.70;;;12.60;99.90;;;;;;5091024;28;20130;-89
2023/10/23 04:58:08;;;;;;;3.67;1.60;;;12.60;99.90;;;;;;5091336;28;20093;-88
2023/10/23 05:00:38;;;;;;;5.95;1.60;;;12.60;99.90;;;;;;5091648;28;20028;-84
2023/10/23 05:03:04;;;;;;;12.20;1.80;;;12.60;99.90;;;;;;5080988;28;20020;-89
2023/10/23 05:05:33;;;;;;;5.60;1.70;;;12.60;99.90;;;;;;5084940;28;20027;-83
2023/10/23 05:08:00;;;;;;;6.10;1.80;;;12.60;99.90;;;;;;5089072;28;20028;-90
2023/10/23 05:10:25;;;;;;;4.93;1.60;;;12.60;99.90;;;;;;5089551;28;20047;-83
2023/10/23 05:12:51;;;;;;;7.03;2.03;;;12.60;99.90;;;;;;5091043;28;20484;-87
2023/10/23 05:15:17;;;;;;;4.53;1.50;;;12.50;99.90;;;;;;5086046;28;20024;-83
2023/10/23 05:17:44;;;;;;;8.82;2.30;;;12.60;99.90;;;;;;5088025;28;20028;-83
2023/10/23 05:20:10;;;;;;;4.78;1.88;;;12.50;99.90;;;;;;5090535;28;20547;-82
2023/10/23 05:22:35;;;;;;;9.57;1.70;;;12.50;99.90;;;;;;5090598;28;20099;-82
2023/10/23 05:25:01;;;;;;;4.30;1.70;;;12.50;99.90;;;;;;5091982;28;20032;-84
2023/10/23 05:27:27;;;;;;;9.30;2.20;;;12.60;99.90;;;;;;5098732;28;20027;-84
2023/10/23 05:29:52;;;;;;;4.97;1.65;;;12.50;99.90;;;;;;5107378;28;20495;-86
2023/10/23 05:32:18;;;;;;;5.50;1.58;;;12.50;99.90;;;;;;5089506;28;20067;-86
2023/10/23 05:34:44;;;;;;;8.35;2.58;;;12.60;99.90;;;;;;5080482;28;20027;-87
2023/10/23 05:37:10;;;;;;;3.40;1.58;;;12.50;99.90;;;;;;5088413;28;20016;-87
2023/10/23 05:39:36;;;;;;;9.60;2.25;;;12.50;99.90;;;;;;5079567;28;20031;-85
2023/10/23 05:42:02;;;;;;;4.78;1.50;;;12.50;99.90;;;;;;5091567;28;20043;-88
2023/10/23 05:44:27;;;;;;;3.97;1.73;;;12.50;99.90;;;;;;5096624;28;20024;-92
2023/10/23 05:46:53;;;;;;;4.90;1.92;;;12.50;99.90;;;;;;5083447;28;20083;-84
2023/10/23 05:49:19;;;;;;;9.07;7.80;;;12.40;99.90;;;;;;5084926;28;20024;-85
2023/10/23 05:51:45;;;;;;;21.17;17.20;;;12.50;99.90;;;;;;5087001;28;20066;-84
2023/10/23 05:54:10;;;;;;;23.65;21.55;;;12.50;99.90;;;;;;5091122;28;20099;-92
2023/10/23 05:56:36;;;;;;;17.27;15.52;;;12.50;99.90;;;;;;5075361;28;20036;-84
2023/10/23 05:59:03;;;;;;;19.25;17.45;;;12.50;99.90;;;;;;5091636;28;20063;-84
2023/10/23 06:01:29;;;;;;;17.98;16.63;;;12.50;99.90;;;;;;5086050;28;20067;-87
2023/10/23 06:03:54;;;;;;;20.48;17.83;;;12.60;99.90;;;;;;5077797;28;20059;-83
2023/10/23 06:06:20;;;;;;;22.08;20.10;;;12.60;99.90;;;;;;5088471;28;20028;-84
2023/10/23 06:08:46;;;;;;;19.50;17.95;;;12.60;99.90;;;;;;5087213;28;20060;-83
2023/10/23 06:11:12;;;;;;;18.95;17.35;;;12.60;99.90;;;;;;5089597;28;20093;-82
2023/10/23 06:13:38;;;;;;;18.42;16.75;;;12.60;99.90;;;;;;5088978;28;20022;-87
2023/10/23 06:16:04;;;;;;;20.48;15.07;;;12.60;99.90;;;;;;5088351;28;20085;-84
2023/10/23 06:18:38;;;;;;;20.23;18.20;;;12.60;99.90;;;;;;5088175;28;20047;-84
2023/10/23 06:21:06;;;;;;;19.63;17.80;;;12.50;99.90;;;;;;5088675;28;20040;-87
2023/10/23 06:23:38;;;;;;;17.33;15.75;;;12.50;99.90;;;;;;5088358;28;20020;-88
2023/10/23 06:26:08;;;;;;;16.48;15.18;;;12.50;99.90;;;;;;5089437;28;20040;-87
2023/10/23 06:28:35;;;;;;;19.45;15.70;;;12.50;99.90;;;;;;5090120;28;20020;-88
2023/10/23 06:31:08;;;;;;;13.35;12.30;;;12.50;99.90;;;;;;5088476;28;20060;-83
2023/10/23 06:33:35;;;;;;;12.38;9.90;;;12.50;99.90;;;;;;5077108;28;20028;-84
2023/10/23 06:36:01;;;;;;;14.48;10.55;;;12.40;99.90;;;;;;5088997;28;20020;-85
2023/10/23 06:38:26;;;;;;;12.25;10.85;;;12.50;99.90;;;;;;5087201;28;20027;-84
2023/10/23 06:40:52;;;;;;;11.52;10.43;;;12.50;99.90;;;;;;5089168;28;20032;-86
2023/10/23 06:43:17;;;;;;;12.20;10.73;;;12.50;99.90;;;;;;5089261;28;20032;-85
2023/10/23 06:45:43;;;;;;;12.40;10.20;;;12.50;99.90;;;;;;5089574;28;20125;-85
2023/10/23 06:48:09;;;;;;;10.65;9.65;;;12.50;99.90;;;;;;5083443;28;20024;-84
2023/10/23 06:50:35;;;;;;;13.40;9.27;;;12.50;99.90;;;;;;5088500;28;20055;-84
2023/10/23 06:53:00;;;;;;;10.77;9.70;;;12.40;99.90;;;;;;5087770;28;20016;-85
2023/10/23 06:55:27;;;;;;;10.43;9.50;;;12.40;99.90;;;;;;5089511;28;20090;-88
2023/10/23 06:57:53;;;;;;;11.07;9.95;;;12.40;99.90;;;;;;5087715;28;20490;-91
2023/10/23 07:00:19;;;;;;;10.35;9.55;;;12.40;99.90;;;;;;5089118;28;20032;-93
2023/10/23 07:02:48;;;;;;;9.25;5.72;;;12.40;99.90;;;;;;5088364;28;20024;-84
2023/10/23 07:05:14;;;;;;;68.50;62.63;;;12.50;99.90;;;;;;5088911;28;20047;-90
2023/10/23 07:07:39;;;;;;;73.07;68.05;;;12.50;99.90;;;;;;5088007;28;20059;-84
2023/10/23 07:10:06;;;;;;;6.72;1.52;;;12.50;99.90;;;;;;5088650;28;20028;-89
2023/10/23 07:12:32;;;;;;;6.68;1.88;;;12.50;99.90;;;;;;5087714;28;20024;-89
2023/10/23 07:14:58;;;;;;;7.57;1.85;;;12.40;99.90;;;;;;5087302;28;20035;-88
2023/10/23 07:17:23;;;;;;;6.72;2.03;;;12.50;99.90;;;;;;5089193;28;20055;-84
2023/10/23 07:19:50;;;;;;;4.25;1.60;;;12.50;99.90;;;;;;5088824;28;20438;-84
2023/10/23 07:22:17;;;;;;;4.93;1.83;;;12.50;99.90;;;;;;5087120;28;20069;-92
2023/10/23 07:24:43;;;;;;;3.30;1.55;;;12.90;99.90;;;;;;5088989;28;20176;-84
2023/10/23 07:27:14;;;;;;;7.75;1.70;;;12.50;99.90;;;;;;5089590;28;20039;-92
2023/10/23 07:29:41;;;;;;;6.00;1.60;;;12.60;99.90;;;;;;5089453;28;20047;-84
2023/10/23 07:32:07;;;;;;;5.93;1.58;;;12.60;99.90;;;;;;5088525;28;20404;-91
2023/10/23 07:34:32;;;;;;;7.13;1.35;;;12.60;99.90;;;;;;5089032;28;20021;-92
2023/10/23 07:36:58;;;;;;;3.75;1.52;;;12.70;99.90;;;;;;5069789;28;20086;-91
2023/10/23 07:39:24;;;;;;;4.95;1.60;;;12.60;99.90;;;;;;5068771;28;20031;-84
2023/10/23 07:41:50;;;;;;;7.43;1.65;;;12.70;99.90;;;;;;5084137;28;20040;-87
2023/10/23 07:44:16;;;;;;;8.32;1.73;;;12.70;99.90;;;;;;5085536;28;20107;-83
2023/10/23 07:46:43;;;;;;;6.28;1.50;;;12.70;99.90;;;;;;5096178;28;20111;-84
2023/10/23 07:49:09;;;;;;;5.45;1.58;;;12.80;99.90;;;;;;5088032;28;20519;-83
2023/10/23 07:51:35;;;;;;;3.78;1.40;;;12.80;99.90;;;;;;5088382;28;20044;-83
2023/10/23 07:54:00;;;;;;;4.45;1.40;;;12.80;99.90;;;;;;5087545;28;20642;-83
2023/10/23 07:56:26;;;;;;;6.47;2.05;;;12.80;99.90;;;;;;5088146;28;20039;-84
2023/10/23 07:58:53;;;;;;;5.47;2.00;;;12.80;99.90;;;;;;5088182;28;20024;-84
2023/10/23 08:01:19;;;;;;;9.73;1.83;;;12.80;99.90;;;;;;5086191;28;20028;-83
2023/10/23 08:03:44;;;;;;;7.90;1.55;;;12.90;99.90;;;;;;5088023;28;20034;-83
2023/10/23 08:06:10;;;;;;;8.45;1.80;;;12.80;99.90;;;;;;5082849;28;20035;-84
2023/10/23 08:08:37;;;;;;;7.00;1.50;;;12.80;99.90;;;;;;5084566;28;20472;-83
2023/10/23 08:11:05;;;;;;;5.57;1.40;;;12.90;99.90;;;;;;5082820;28;20480;-84
2023/10/23 08:13:31;;;;;;;7.13;1.90;;;12.90;99.90;;;;;;5080829;28;20090;-85
2023/10/23 08:15:57;;;;;;;3.05;1.20;;;12.90;99.90;;;;;;5081936;28;20469;-84
2023/10/23 08:18:22;;;;;;;5.15;1.60;;;12.80;99.90;;;;;;5082460;28;20050;-84
2023/10/23 08:20:48;;;;;;;5.45;1.73;;;12.90;99.90;;;;;;5080086;28;20043;-83
2023/10/23 08:23:14;;;;;;;5.63;1.77;;;13.00;99.90;;;;;;5081248;28;20555;-84
2023/10/23 08:25:41;;;;;;;3.83;1.60;;;13.00;99.90;;;;;;5091797;28;20032;-84
2023/10/23 08:28:08;;;;;;;6.53;2.00;;;13.00;99.90;;;;;;5088152;28;20032;-83
2023/10/23 08:30:34;;;;;;;3.35;1.73;;;13.00;99.90;;;;;;5083678;28;20445;-83
2023/10/23 08:32:59;;;;;;;4.82;1.40;;;13.10;99.90;;;;;;5085203;28;20025;-84
2023/10/23 08:35:27;;;;;;;6.35;1.50;;;13.10;99.90;;;;;;5085285;28;20050;-88
2023/10/23 08:37:54;;;;;;;6.55;1.95;;;13.10;99.90;;;;;;5091218;28;20083;-84
2023/10/23 08:40:20;;;;;;;5.07;1.80;;;13.10;99.90;;;;;;5086042;28;20240;-84
2023/10/23 08:42:47;;;;;;;8.57;2.33;;;13.10;99.90;;;;;;5087394;28;20036;-90
2023/10/23 08:45:15;;;;;;;5.50;2.33;;;13.20;99.90;;;;;;5072397;28;20158;-87
2023/10/23 08:47:40;;;;;;;11.35;2.97;;;13.20;99.90;;;;;;5070948;28;20028;-83
2023/10/23 08:50:07;;;;;;;7.38;3.67;;;13.30;99.90;;;;;;5060180;28;20069;-89
2023/10/23 08:52:38;;;;;;;12.27;4.80;;;13.20;99.90;;;;;;5065436;28;20496;-88
2023/10/23 08:55:07;;;;;;;12.63;4.47;;;13.30;99.90;;;;;;5069641;28;20040;-83
2023/10/23 08:57:36;;;;;;;14.70;5.40;;;13.30;99.90;;;;;;5083568;28;20062;-85
2023/10/23 09:00:01;;;;;;;13.18;5.30;;;13.40;99.90;;;;;;5063291;28;20029;-86
2023/10/23 09:02:31;;;;;;;11.55;5.60;;;13.40;99.90;;;;;;5056008;28;20036;-83
2023/10/23 09:04:56;;;;;;;13.00;5.38;;;13.50;99.90;;;;;;5075669;28;20434;-90
2023/10/23 09:07:22;;;;;;;12.27;4.93;;;13.50;99.90;;;;;;5090590;28;20080;-84
2023/10/23 09:09:47;;;;;;;10.32;3.72;;;13.60;99.90;;;;;;5089843;28;20023;-83
2023/10/23 09:12:31;;;;;;;5.45;3.03;;;13.60;99.90;;;;;;5088477;28;20031;-84
2023/10/23 09:14:56;;;;;;;11.05;3.38;;;13.70;99.90;;;;;;5090797;28;20020;-84
2023/10/23 09:17:23;;;;;;;5.57;2.42;;;13.70;99.90;;;;;;5071575;28;20370;-83
2023/10/23 09:19:49;;;;;;;4.88;2.42;;;13.70;99.90;;;;;;5088095;28;20153;-88
2023/10/23 09:22:15;;;;;;;5.18;2.03;;;13.80;99.90;;;;;;5088266;28;20106;-87
2023/10/23 09:24:40;;;;;;;4.15;1.88;;;13.70;99.90;;;;;;5085282;28;20020;-83
2023/10/23 09:27:06;;;;;;;5.38;1.88;;;13.70;99.90;;;;;;5068231;28;20033;-84
2023/10/23 09:29:34;;;;;;;2.88;1.85;;;13.80;99.90;;;;;;5074899;28;20048;-83
2023/10/23 09:32:00;;;;;;;15.68;1.98;;;13.90;99.90;;;;;;5073675;28;20024;-84
2023/10/23 09:34:26;;;;;;;6.05;2.50;;;13.90;99.90;;;;;;5085557;28;20031;-82
2023/10/23 09:36:52;;;;;;;7.07;1.67;;;13.90;99.90;;;;;;5084872;28;20385;-84
2023/10/23 09:39:19;;;;;;;9.40;1.98;;;14.00;99.90;;;;;;5085303;28;20035;-83
2023/10/23 09:41:48;;;;;;;4.35;1.77;;;14.00;99.90;;;;;;5088362;28;20032;-83
2023/10/23 09:44:14;;;;;;;8.93;3.78;;;14.10;99.90;;;;;;5090742;28;20402;-87
2023/10/23 09:46:44;;;;;;;7.15;2.38;;;14.10;99.90;;;;;;5089290;28;20452;-89
2023/10/23 09:49:10;;;;;;;5.90;1.95;;;14.20;99.90;;;;;;5089008;28;20027;-83
2023/10/23 09:51:39;;;;;;;5.57;1.90;;;14.20;99.90;;;;;;5089318;28;20601;-89
2023/10/23 09:54:17;;;;;;;7.93;2.40;;;14.20;99.90;;;;;;5090126;28;20024;-83
2023/10/23 09:56:51;;;;;;;3.95;2.03;;;14.30;99.90;;;;;;5091266;28;20039;-86
2023/10/23 09:59:18;;;;;;;4.47;2.17;;;14.20;99.90;;;;;;5088825;28;20115;-83
2023/10/23 10:01:49;;;;;;;5.77;2.03;;;14.30;99.90;;;;;;5090732;28;20064;-84
2023/10/23 10:04:24;;;;;;;2.83;1.70;;;14.30;99.90;;;;;;5079260;28;20107;-92
2023/10/23 10:06:57;;;;;;;7.28;2.00;;;14.30;99.90;;;;;;5079061;28;20058;-92
2023/10/23 10:09:26;;;;;;;3.72;1.85;;;14.30;99.90;;;;;;5090593;28;20020;-90
2023/10/23 10:11:55;;;;;;;4.22;1.95;;;14.40;99.90;;;;;;5089471;28;20051;-83
2023/10/23 10:14:21;;;;;;;;;;;14.30;99.90;;;;;;5084751;28;20502;-86
2023/10/23 10:16:47;;;;;;;4.93;2.28;;;14.20;99.90;;;;;;5089126;28;19954;-84
2023/10/23 10:19:15;;;;;;;7.22;1.92;;;14.30;99.90;;;;;;5090838;28;20119;-91
2023/10/23 10:21:50;;;;;;;5.63;2.05;;;14.30;99.90;;;;;;5088284;28;20032;-91
2023/10/23 10:24:20;;;;;;;6.95;2.28;;;14.30;99.90;;;;;;5088177;28;20024;-91
2023/10/23 10:26:47;;;;;;;5.88;2.10;;;14.30;99.90;;;;;;5090849;28;20032;-84
2023/10/23 10:29:13;;;;;;;4.47;2.20;;;14.30;99.90;;;;;;5089645;28;20107;-91
2023/10/23 10:32:10;;;;;;;7.15;2.10;;;14.40;99.90;;;;;;5088958;28;20722;-90
2023/10/23 10:34:37;;;;;;;7.35;2.17;;;14.30;99.90;;;;;;5057641;28;20119;-91
2023/10/23 10:37:05;;;;;;;4.68;2.03;;;14.30;99.90;;;;;;5069548;28;20028;-92
2023/10/23 10:40:04;;;;;;;5.40;2.28;;;14.20;99.90;;;;;;5079697;28;20020;-91
2023/10/23 10:42:34;;;;;;;6.22;2.33;;;14.30;99.90;;;;;;5048719;28;20058;-92
2023/10/23 10:45:15;;;;;;;6.00;2.40;;;14.20;99.90;;;;;;5073409;28;20016;-84
2023/10/23 10:47:53;;;;;;;5.25;2.38;;;14.20;99.90;;;;;;5089341;28;20035;-91
2023/10/23 10:50:40;;;;;;;5.22;2.38;;;14.20;99.90;;;;;;5091079;28;20032;-91
2023/10/23 10:53:08;;;;;;;4.43;2.35;;;14.30;99.90;;;;;;5088426;28;20028;-92
2023/10/23 10:55:35;;;;;;;5.63;2.47;;;14.30;99.90;;;;;;5088772;28;20028;-91
2023/10/23 10:58:02;;;;;;;5.75;2.60;;;14.20;99.90;;;;;;5083439;28;20077;-91
2023/10/23 11:00:30;;;;;;;6.13;2.57;;;14.30;99.90;;;;;;5087866;28;20035;-90
2023/10/23 11:02:56;;;;;;;7.30;2.58;;;14.30;99.90;;;;;;5089513;28;20032;-88
2023/10/23 11:05:22;;;;;;;5.10;2.50;;;14.20;99.90;;;;;;5088561;28;20078;-91
2023/10/23 11:07:50;;;;;;;3.03;2.10;;;14.30;99.90;;;;;;5089455;28;20426;-89
2023/10/23 11:10:16;;;;;;;6.72;2.60;;;14.20;99.90;;;;;;5088193;28;20027;-92
2023/10/23 11:12:41;;;;;;;4.97;2.20;;;14.20;99.90;;;;;;5088174;28;20040;-93
2023/10/23 11:15:07;;;;;;;6.18;2.85;;;14.20;99.90;;;;;;5081976;28;20028;-85
2023/10/23 11:17:33;;;;;;;8.60;2.50;;;14.20;99.90;;;;;;5088769;28;20020;-92
2023/10/23 11:19:59;;;;;;;4.82;2.28;;;14.20;99.90;;;;;;5087885;28;20068;-91
2023/10/23 11:22:25;;;;;;;7.28;2.53;;;14.20;99.90;;;;;;5088196;28;20093;-87
2023/10/23 11:24:51;;;;;;;4.60;2.40;;;14.20;99.90;;;;;;5090136;28;20024;-91
2023/10/23 11:27:17;;;;;;;5.20;2.40;;;14.30;99.90;;;;;;5090124;28;20028;-91
2023/10/23 11:29:45;;;;;;;6.07;2.70;;;14.20;99.90;;;;;;5087640;28;20463;-92
2023/10/23 11:32:18;;;;;;;3.50;2.23;;;14.20;99.90;;;;;;5084465;28;20028;-94
2023/10/23 11:34:45;;;;;;;4.25;2.30;;;14.30;99.90;;;;;;5089275;28;20040;-92
2023/10/23 11:37:11;;;;;;;4.70;2.50;;;14.30;99.90;;;;;;5086944;28;20097;-88
2023/10/23 11:39:42;;;;;;;5.97;2.50;;;14.20;99.90;;;;;;5087293;28;20209;-84
2023/10/23 11:42:07;;;;;;;11.15;3.00;;;14.20;99.90;;;;;;5088037;28;20556;-86
2023/10/23 11:44:34;;;;;;;6.80;2.85;;;14.20;99.90;;;;;;5087518;28;20111;-85
2023/10/23 11:47:04;;;;;;;4.07;2.60;;;14.20;99.90;;;;;;5087501;28;20029;-85
2023/10/23 11:49:31;;;;;;;6.25;3.10;;;14.20;99.90;;;;;;5083118;28;20044;-87
2023/10/23 11:51:58;;;;;;;7.05;3.10;;;14.10;99.90;;;;;;5088235;28;20032;-91
2023/10/23 11:54:25;;;;;;;9.85;3.20;;;14.10;99.90;;;;;;5088653;28;20499;-84
2023/10/23 11:56:51;;;;;;;9.35;3.45;;;14.20;99.90;;;;;;5089857;28;20466;-91
2023/10/23 11:59:21;;;;;;;8.98;3.47;;;14.20;99.90;;;;;;5090559;28;20020;-87
2023/10/23 12:01:47;;;;;;;9.13;3.50;;;14.10;99.90;;;;;;5088443;28;20426;-85
2023/10/23 12:04:13;;;;;;;6.15;3.67;;;14.20;99.90;;;;;;5087896;28;20036;-83
2023/10/23 12:06:40;;;;;;;5.75;3.17;;;14.20;99.90;;;;;;5081979;28;20012;-83
2023/10/23 12:09:07;;;;;;;10.25;3.63;;;14.20;99.90;;;;;;5073204;28;20027;-89
2023/10/23 12:11:33;;;;;;;9.82;3.55;;;14.20;99.90;;;;;;5088452;28;20031;-83
2023/10/23 12:14:01;;;;;;;6.88;3.90;;;14.20;99.90;;;;;;5090664;28;20497;-90
2023/10/23 12:16:27;;;;;;;12.90;3.80;;;14.20;99.90;;;;;;5092157;28;20028;-90
2023/10/23 12:18:53;;;;;;;9.25;3.83;;;14.30;99.90;;;;;;5091575;28;20028;-85
2023/10/23 12:21:19;;;;;;;6.05;3.67;;;14.40;99.90;;;;;;5087832;28;20090;-91
2023/10/23 12:23:45;;;;;;;7.88;3.53;;;14.50;99.90;;;;;;5084388;28;20046;-84
2023/10/23 12:26:11;;;;;;;8.88;3.92;;;14.60;99.90;;;;;;5092557;28;20107;-90
2023/10/23 12:28:37;;;;;;;5.90;3.40;;;14.70;99.90;;;;;;5092554;28;20055;-85
2023/10/23 12:31:04;;;;;;;8.43;3.42;;;14.80;99.90;;;;;;5092749;28;20016;-90
2023/10/23 12:33:30;;;;;;;7.75;3.80;;;14.80;99.90;;;;;;5092442;28;20380;-88
2023/10/23 12:35:56;;;;;;;8.48;3.30;;;14.80;99.90;;;;;;5092330;28;20495;-84
2023/10/23 12:38:22;;;;;;;11.65;3.50;;;14.90;99.90;;;;;;5092996;28;20024;-84
2023/10/23 12:40:48;;;;;;;6.82;3.42;;;15.00;99.90;;;;;;5089904;28;20484;-91
2023/10/23 12:43:14;;;;;;;6.78;3.70;;;15.20;99.90;;;;;;5074704;28;20242;-89